createdAt,value
2018-12-29T00:01:58.605Z,46.43
2018-12-29T00:04:28.139Z,46.50
2018-12-29T00:06:57.322Z,48.53
2018-12-29T00:09:26.552Z,46.87
2018-12-29T00:11:55.806Z,46.53
2018-12-29T00:14:25.038Z,46.63
2018-12-29T00:16:54.653Z,44.30
2018-12-29T00:19:23.887Z,45.73
2018-12-29T00:21:53.373Z,46.27
2018-12-29T00:24:22.602Z,46.43
2018-12-29T00:26:52.163Z,43.77
2018-12-29T00:29:21.381Z,44.93
2018-12-29T00:31:50.619Z,44.57
2018-12-29T00:34:19.812Z,44.70
2018-12-29T00:36:49.336Z,43.33
2018-12-29T00:39:18.525Z,42.00
2018-12-29T00:41:47.775Z,45.17
2018-12-29T00:44:17.551Z,43.27
2018-12-29T00:46:46.716Z,43.70
2018-12-29T00:49:15.900Z,42.90
2018-12-29T00:51:45.114Z,44.07
2018-12-29T00:54:14.662Z,42.53
2018-12-29T00:56:43.873Z,42.00
2018-12-29T00:59:13.042Z,43.17
2018-12-29T01:01:42.547Z,43.13
2018-12-29T01:04:11.729Z,42.77
2018-12-29T01:06:40.910Z,41.40
2018-12-29T01:09:10.440Z,41.43
2018-12-29T01:11:39.641Z,42.13
2018-12-29T01:14:08.885Z,43.33
2018-12-29T01:16:38.347Z,41.90
2018-12-29T01:19:07.480Z,43.10
2018-12-29T01:21:36.714Z,42.63
2018-12-29T01:24:05.964Z,41.60
2018-12-29T01:26:35.136Z,40.73
2018-12-29T01:29:04.598Z,41.23
2018-12-29T01:31:33.850Z,40.97
2018-12-29T01:34:03.325Z,42.40
2018-12-29T01:36:32.510Z,40.80
2018-12-29T01:39:02.329Z,39.43
2018-12-29T01:41:31.844Z,40.27
2018-12-29T01:44:00.980Z,40.30
2018-12-29T01:46:30.177Z,40.30
2018-12-29T01:48:59.332Z,37.97
2018-12-29T01:51:28.553Z,38.67
2018-12-29T01:53:57.748Z,38.13
2018-12-29T01:56:26.927Z,38.93
2018-12-29T01:58:56.458Z,38.63
2018-12-29T02:01:26.053Z,37.20
2018-12-29T02:03:55.542Z,37.87
2018-12-29T02:06:25.136Z,37.47
2018-12-29T02:08:54.412Z,37.43
2018-12-29T02:11:23.653Z,37.70
2018-12-29T02:13:52.814Z,37.60
2018-12-29T02:16:22.166Z,40.00
2018-12-29T02:18:51.334Z,39.00
2018-12-29T02:21:20.880Z,37.77
2018-12-29T02:23:50.133Z,40.07
2018-12-29T02:26:19.314Z,39.13
2018-12-29T02:28:48.524Z,40.00
2018-12-29T02:31:18.001Z,39.70
2018-12-29T02:33:47.533Z,42.20
2018-12-29T02:36:16.705Z,40.63
2018-12-29T02:38:45.934Z,40.50
2018-12-29T02:41:15.425Z,39.90
2018-12-29T02:43:44.631Z,40.67
2018-12-29T02:46:13.796Z,39.83
2018-12-29T02:48:42.979Z,40.00
2018-12-29T02:51:12.142Z,38.67
2018-12-29T02:53:41.307Z,38.93
2018-12-29T02:56:10.458Z,38.57
2018-12-29T02:58:39.629Z,38.30
2018-12-29T03:01:08.802Z,38.93
2018-12-29T03:03:37.993Z,38.03
2018-12-29T03:06:07.168Z,39.37
2018-12-29T03:08:37.100Z,40.30
2018-12-29T03:11:06.713Z,38.93
2018-12-29T03:13:35.958Z,41.57
2018-12-29T03:16:05.241Z,41.53
2018-12-29T03:18:34.419Z,38.53
2018-12-29T03:21:03.597Z,41.83
2018-12-29T03:23:32.752Z,41.13
2018-12-29T03:26:02.003Z,42.07
2018-12-29T03:28:31.169Z,40.80
2018-12-29T03:31:00.326Z,40.87
2018-12-29T03:33:29.949Z,38.23
2018-12-29T03:35:59.458Z,40.77
2018-12-29T03:38:28.696Z,41.60
2018-12-29T03:40:58.295Z,39.60
2018-12-29T03:43:27.467Z,41.47
2018-12-29T03:45:57.301Z,41.00
2018-12-29T03:48:26.476Z,41.13
2018-12-29T03:50:55.710Z,39.73
2018-12-29T03:53:25.180Z,39.23
2018-12-29T03:55:55.003Z,41.90
2018-12-29T03:58:24.201Z,39.40
2018-12-29T04:00:53.770Z,39.70
2018-12-29T04:03:23.726Z,40.30
2018-12-29T04:05:53.083Z,37.83
2018-12-29T04:08:22.682Z,38.80
2018-12-29T04:10:51.848Z,39.93
2018-12-29T04:13:21.000Z,39.77
2018-12-29T04:15:57.615Z,38.93
2018-12-29T04:18:21.004Z,40.10
2018-12-29T04:20:50.177Z,39.27
2018-12-29T04:23:19.347Z,39.20
2018-12-29T04:25:48.554Z,38.83
2018-12-29T04:28:17.699Z,38.83
2018-12-29T04:30:47.956Z,39.53
2018-12-29T04:33:17.099Z,40.20
2018-12-29T04:35:46.282Z,39.70
2018-12-29T04:38:15.787Z,39.30
2018-12-29T04:40:45.546Z,38.63
2018-12-29T04:43:14.675Z,39.23
2018-12-29T04:45:44.791Z,37.60
2018-12-29T04:48:13.987Z,38.03
2018-12-29T04:50:43.130Z,39.67
2018-12-29T04:53:12.650Z,39.47
2018-12-29T04:55:41.792Z,38.77
2018-12-29T04:58:10.991Z,38.13
2018-12-29T05:00:40.150Z,37.57
2018-12-29T05:03:09.732Z,37.20
2018-12-29T05:05:38.887Z,36.67
2018-12-29T05:08:08.107Z,38.00
2018-12-29T05:10:37.430Z,36.33
2018-12-29T05:13:07.017Z,37.43
2018-12-29T05:15:36.459Z,39.13
2018-12-29T05:18:05.624Z,38.40
2018-12-29T05:20:35.143Z,39.03
2018-12-29T05:23:04.394Z,38.93
2018-12-29T05:25:33.857Z,39.13
2018-12-29T05:28:03.209Z,37.03
2018-12-29T05:30:32.357Z,39.73
2018-12-29T05:33:01.582Z,38.67
2018-12-29T05:35:31.161Z,37.67
2018-12-29T05:38:00.312Z,37.73
2018-12-29T05:40:29.767Z,38.27
2018-12-29T05:42:58.923Z,39.47
2018-12-29T05:45:28.136Z,38.90
2018-12-29T05:47:57.661Z,37.47
2018-12-29T05:50:27.232Z,39.53
2018-12-29T05:52:56.930Z,38.83
2018-12-29T05:55:26.170Z,39.83
2018-12-29T05:57:55.420Z,38.30
2018-12-29T06:00:24.569Z,39.07
2018-12-29T06:02:54.048Z,37.60
2018-12-29T06:05:23.212Z,37.77
2018-12-29T06:07:52.386Z,38.87
2018-12-29T06:10:21.531Z,36.27
2018-12-29T06:12:51.048Z,36.87
2018-12-29T06:15:20.193Z,38.10
2018-12-29T06:17:49.651Z,36.83
2018-12-29T06:20:18.803Z,38.67
2018-12-29T06:22:47.957Z,37.70
2018-12-29T06:25:17.497Z,36.77
2018-12-29T06:27:46.797Z,37.40
2018-12-29T06:30:16.457Z,38.27
2018-12-29T06:32:45.642Z,38.80
2018-12-29T06:35:15.258Z,38.07
2018-12-29T06:37:44.444Z,38.57
2018-12-29T06:40:13.919Z,41.23
2018-12-29T06:42:43.359Z,40.23
2018-12-29T06:45:12.572Z,40.37
2018-12-29T06:47:41.731Z,42.73
2018-12-29T06:50:11.568Z,44.33
2018-12-29T06:52:41.329Z,43.73
2018-12-29T06:55:10.557Z,41.57
2018-12-29T06:57:40.141Z,45.60
2018-12-29T07:00:09.992Z,44.37
2018-12-29T07:02:39.137Z,44.80
2018-12-29T07:05:08.296Z,44.93
2018-12-29T07:07:37.603Z,44.30
2018-12-29T07:10:06.792Z,46.07
2018-12-29T07:12:35.937Z,45.37
2018-12-29T07:15:05.465Z,44.10
2018-12-29T07:17:34.974Z,43.73
2018-12-29T07:20:04.675Z,45.23
2018-12-29T07:22:33.841Z,45.77
2018-12-29T07:25:03.036Z,46.27
2018-12-29T07:27:32.270Z,46.77
2018-12-29T07:30:01.555Z,44.43
2018-12-29T07:32:31.060Z,44.83
2018-12-29T07:35:00.373Z,46.63
2018-12-29T07:37:29.695Z,48.60
2018-12-29T07:39:58.868Z,47.40
2018-12-29T07:42:28.108Z,46.60
2018-12-29T07:44:57.399Z,47.17
2018-12-29T07:47:26.714Z,46.40
2018-12-29T07:49:56.165Z,45.63
2018-12-29T07:52:25.300Z,46.17
2018-12-29T07:54:54.633Z,46.20
2018-12-29T07:57:24.151Z,46.87
2018-12-29T07:59:53.304Z,45.33
2018-12-29T08:02:22.759Z,44.00
2018-12-29T08:04:52.341Z,45.10
2018-12-29T08:07:21.585Z,46.43
2018-12-29T08:09:50.843Z,45.63
2018-12-29T08:12:20.270Z,47.57
2018-12-29T08:14:49.961Z,46.07
2018-12-29T08:17:19.258Z,45.30
2018-12-29T08:19:48.557Z,45.60
2018-12-29T08:22:17.835Z,46.03
2018-12-29T08:24:47.463Z,46.93
2018-12-29T08:27:16.890Z,44.23
2018-12-29T08:29:46.480Z,42.97
2018-12-29T08:32:15.644Z,44.13
2018-12-29T08:34:44.898Z,41.70
2018-12-29T08:37:14.084Z,41.10
2018-12-29T08:39:43.278Z,41.27
2018-12-29T08:42:12.464Z,42.80
2018-12-29T08:44:41.631Z,43.17
2018-12-29T08:47:10.794Z,42.57
2018-12-29T08:49:41.883Z,42.70
2018-12-29T08:52:11.037Z,44.17
2018-12-29T08:54:40.227Z,45.50
2018-12-29T08:57:09.417Z,43.37
2018-12-29T08:59:38.890Z,43.53
2018-12-29T09:02:08.205Z,43.97
2018-12-29T09:04:37.433Z,42.57
2018-12-29T09:07:07.142Z,42.87
2018-12-29T09:09:36.417Z,43.03
2018-12-29T09:12:06.090Z,44.20
2018-12-29T09:14:35.762Z,43.67
2018-12-29T09:17:12.091Z,43.77
2018-12-29T09:19:37.615Z,45.90
2018-12-29T09:22:07.012Z,45.23
2018-12-29T09:24:36.164Z,45.73
2018-12-29T09:27:05.345Z,46.03
2018-12-29T09:29:34.507Z,47.20
2018-12-29T09:32:04.155Z,44.30
2018-12-29T09:34:33.584Z,44.20
2018-12-29T09:37:02.871Z,44.53
2018-12-29T09:39:32.415Z,44.90
2018-12-29T09:42:01.961Z,46.33
2018-12-29T09:44:31.184Z,45.50
2018-12-29T09:47:00.523Z,48.27
2018-12-29T09:49:29.836Z,48.63
2018-12-29T09:51:59.315Z,46.57
2018-12-29T09:54:28.584Z,45.63
2018-12-29T09:56:58.057Z,46.43
2018-12-29T09:59:27.354Z,44.10
2018-12-29T10:01:56.708Z,47.33
2018-12-29T10:04:25.890Z,46.57
2018-12-29T10:06:55.113Z,44.77
2018-12-29T10:09:24.982Z,48.23
2018-12-29T10:11:54.198Z,46.27
2018-12-29T10:14:23.699Z,47.37
2018-12-29T10:16:52.900Z,46.33
2018-12-29T10:19:22.113Z,47.60
2018-12-29T10:21:51.367Z,47.93
2018-12-29T10:24:20.513Z,47.60
2018-12-29T10:26:49.784Z,49.77
2018-12-29T10:29:19.072Z,48.17
2018-12-29T10:31:48.347Z,48.97
2018-12-29T10:34:17.504Z,49.03
2018-12-29T10:36:47.356Z,50.20
2018-12-29T10:39:16.658Z,50.70
2018-12-29T10:41:45.889Z,48.33
2018-12-29T10:44:15.144Z,53.13
2018-12-29T10:46:44.439Z,54.77
2018-12-29T10:49:13.604Z,53.80
2018-12-29T10:51:43.044Z,55.00
2018-12-29T10:54:12.234Z,53.70
2018-12-29T10:56:41.753Z,53.83
2018-12-29T10:59:11.293Z,48.97
2018-12-29T11:01:40.537Z,53.97
2018-12-29T11:04:10.089Z,52.63
2018-12-29T11:06:39.348Z,55.97
2018-12-29T11:09:08.588Z,50.80
2018-12-29T11:11:37.841Z,51.60
2018-12-29T11:14:07.450Z,57.63
2018-12-29T11:16:39.190Z,54.23
2018-12-29T11:19:08.552Z,55.10
2018-12-29T11:21:37.841Z,55.60
2018-12-29T11:24:07.008Z,56.47
2018-12-29T11:26:36.521Z,51.67
2018-12-29T11:29:05.744Z,52.20
2018-12-29T11:31:34.900Z,48.27
2018-12-29T11:34:04.109Z,46.93
2018-12-29T11:36:33.284Z,46.90
2018-12-29T11:39:03.900Z,46.83
2018-12-29T11:41:33.071Z,47.23
2018-12-29T11:44:02.337Z,46.67
2018-12-29T11:46:31.885Z,46.20
2018-12-29T11:49:01.988Z,47.23
2018-12-29T11:51:31.333Z,45.90
2018-12-29T11:54:00.574Z,47.73
2018-12-29T11:56:30.013Z,45.47
2018-12-29T11:58:59.247Z,46.20
2018-12-29T12:01:46.458Z,44.73
2018-12-29T12:04:39.925Z,42.83
2018-12-29T12:07:09.249Z,41.60
2018-12-29T12:09:38.490Z,43.27
2018-12-29T12:12:11.096Z,43.67
2018-12-29T12:14:40.331Z,41.00
2018-12-29T12:17:09.831Z,41.33
2018-12-29T12:19:39.424Z,40.60
2018-12-29T12:22:08.652Z,41.70
2018-12-29T12:24:37.903Z,38.43
2018-12-29T12:27:07.115Z,35.83
2018-12-29T12:29:36.655Z,38.00
2018-12-29T12:32:06.523Z,37.57
2018-12-29T12:34:36.046Z,39.97
2018-12-29T12:37:05.394Z,38.67
2018-12-29T12:39:34.627Z,37.17
2018-12-29T12:42:04.250Z,38.30
2018-12-29T12:44:33.490Z,37.83
2018-12-29T12:47:03.361Z,37.37
2018-12-29T12:49:32.608Z,36.80
2018-12-29T12:52:01.883Z,38.87
2018-12-29T12:54:31.472Z,37.27
2018-12-29T12:57:01.461Z,38.40
2018-12-29T12:59:40.167Z,36.63
2018-12-29T13:02:09.707Z,36.80
2018-12-29T13:04:39.521Z,38.77
2018-12-29T13:07:09.132Z,37.67
2018-12-29T13:09:38.648Z,35.87
2018-12-29T13:12:08.226Z,36.10
2018-12-29T13:14:37.523Z,35.13
2018-12-29T13:17:07.453Z,35.90
2018-12-29T13:19:37.070Z,35.93
2018-12-29T13:22:06.651Z,34.13
2018-12-29T13:24:36.262Z,32.43
2018-12-29T13:27:05.525Z,31.17
2018-12-29T13:29:34.785Z,32.00
2018-12-29T13:32:04.603Z,32.40
2018-12-29T13:34:33.953Z,31.40
2018-12-29T13:37:03.543Z,31.87
2018-12-29T13:39:32.795Z,30.77
2018-12-29T13:42:02.371Z,32.23
2018-12-29T13:44:31.921Z,31.53
2018-12-29T13:47:01.182Z,31.00
2018-12-29T13:49:30.843Z,30.60
2018-12-29T13:52:00.276Z,28.50
2018-12-29T13:54:29.790Z,29.27
2018-12-29T13:56:59.325Z,28.90
2018-12-29T13:59:29.007Z,28.80
2018-12-29T14:01:58.246Z,28.77
2018-12-29T14:04:27.909Z,28.43
2018-12-29T14:06:57.217Z,28.20
2018-12-29T14:09:26.547Z,27.90
2018-12-29T14:11:56.210Z,28.63
2018-12-29T14:14:26.685Z,27.33
2018-12-29T14:16:56.385Z,27.07
2018-12-29T14:19:25.627Z,26.63
2018-12-29T14:21:54.954Z,27.23
2018-12-29T14:24:24.214Z,25.70
2018-12-29T14:26:53.482Z,25.83
2018-12-29T14:29:23.040Z,25.43
2018-12-29T14:31:52.324Z,23.50
2018-12-29T14:34:21.634Z,23.57
2018-12-29T14:36:50.894Z,24.13
2018-12-29T14:39:20.126Z,23.00
2018-12-29T14:41:50.558Z,22.23
2018-12-29T14:44:20.045Z,23.40
2018-12-29T14:46:49.340Z,21.03
2018-12-29T14:49:18.792Z,21.80
2018-12-29T14:51:48.054Z,21.43
2018-12-29T14:54:17.556Z,20.40
2018-12-29T14:56:46.821Z,20.90
2018-12-29T14:59:15.964Z,19.93
2018-12-29T15:01:45.136Z,19.87
2018-12-29T15:04:14.975Z,18.67
2018-12-29T15:06:44.767Z,18.50
2018-12-29T15:09:13.938Z,18.77
2018-12-29T15:11:43.388Z,17.63
2018-12-29T15:14:12.640Z,18.27
2018-12-29T15:16:42.079Z,17.90
2018-12-29T15:19:11.345Z,17.67
2018-12-29T15:21:40.698Z,18.10
2018-12-29T15:24:10.493Z,15.97
2018-12-29T15:26:39.736Z,15.87
2018-12-29T15:29:09.811Z,15.57
2018-12-29T15:31:39.415Z,15.30
2018-12-29T15:34:08.687Z,14.10
2018-12-29T15:36:38.336Z,13.93
2018-12-29T15:39:08.091Z,12.70
2018-12-29T15:41:37.337Z,11.97
2018-12-29T15:44:07.027Z,12.83
2018-12-29T15:46:36.266Z,11.03
2018-12-29T15:49:05.699Z,10.10
2018-12-29T15:51:35.357Z,10.33
2018-12-29T15:54:04.931Z,10.10
2018-12-29T15:56:34.494Z,7.70
2018-12-29T15:59:03.746Z,7.67
2018-12-29T16:01:33.292Z,8.03
2018-12-29T16:04:02.561Z,8.37
2018-12-29T16:06:32.204Z,7.97
2018-12-29T16:09:01.585Z,7.70
2018-12-29T16:11:31.313Z,6.90
2018-12-29T16:14:00.716Z,7.80
2018-12-29T16:16:30.083Z,7.50
2018-12-29T16:19:00.697Z,7.67
2018-12-29T16:21:30.405Z,7.33
2018-12-29T16:24:00.071Z,6.83
2018-12-29T16:26:29.779Z,7.27
2018-12-29T16:28:59.516Z,6.67
2018-12-29T16:31:29.106Z,7.40
2018-12-29T16:34:00.505Z,7.67
2018-12-29T16:36:30.263Z,7.30
2018-12-29T16:38:59.671Z,7.53
2018-12-29T16:41:28.991Z,7.10
2018-12-29T16:43:58.591Z,8.30
2018-12-29T16:46:27.889Z,7.30
2018-12-29T16:48:57.172Z,7.87
2018-12-29T16:51:26.476Z,8.37
2018-12-29T16:53:55.863Z,8.77
2018-12-29T16:56:25.234Z,7.97
2018-12-29T16:58:54.885Z,8.07
2018-12-29T17:01:24.231Z,8.63
2018-12-29T17:03:53.891Z,9.03
2018-12-29T17:06:23.253Z,8.43
2018-12-29T17:08:52.608Z,7.90
2018-12-29T17:11:21.900Z,7.63
2018-12-29T17:13:51.304Z,7.87
2018-12-29T17:16:20.673Z,8.20
2018-12-29T17:18:50.009Z,8.00
2018-12-29T17:21:19.373Z,8.17
2018-12-29T17:23:51.604Z,8.67
2018-12-29T17:26:21.359Z,8.30
2018-12-29T17:28:50.641Z,8.73
2018-12-29T17:31:20.393Z,8.80
2018-12-29T17:33:49.943Z,8.83
2018-12-29T17:36:19.575Z,9.00
2018-12-29T17:38:48.859Z,8.90
2018-12-29T17:41:24.548Z,9.43
2018-12-29T17:43:54.033Z,9.63
2018-12-29T17:46:23.327Z,10.33
2018-12-29T17:48:54.265Z,9.87
2018-12-29T17:51:23.644Z,9.43
2018-12-29T17:53:56.624Z,9.57
2018-12-29T17:56:29.235Z,10.20
2018-12-29T17:58:59.154Z,10.07
2018-12-29T18:01:28.758Z,10.27
2018-12-29T18:03:58.208Z,10.60
2018-12-29T18:06:27.631Z,10.53
2018-12-29T18:08:57.641Z,10.57
2018-12-29T18:11:27.305Z,10.33
2018-12-29T18:13:56.684Z,10.03
2018-12-29T18:16:26.125Z,9.50
2018-12-29T18:18:55.424Z,9.77
2018-12-29T18:21:24.679Z,9.93
2018-12-29T18:23:53.925Z,9.73
2018-12-29T18:26:23.473Z,9.90
2018-12-29T18:28:52.708Z,10.37
2018-12-29T18:31:21.929Z,10.37
2018-12-29T18:33:51.346Z,11.40
2018-12-29T18:36:20.586Z,12.13
2018-12-29T18:38:50.243Z,10.57
2018-12-29T18:41:20.574Z,10.93
2018-12-29T18:43:50.161Z,10.90
2018-12-29T18:46:19.293Z,11.20
2018-12-29T18:48:48.848Z,11.87
2018-12-29T18:51:18.326Z,12.07
2018-12-29T18:53:47.886Z,11.93
2018-12-29T18:56:17.183Z,12.60
2018-12-29T18:58:46.929Z,12.60
2018-12-29T19:01:16.529Z,11.77
2018-12-29T19:03:49.337Z,12.10
2018-12-29T19:06:18.603Z,12.50
2018-12-29T19:08:48.152Z,12.80
2018-12-29T19:11:17.404Z,13.40
2018-12-29T19:13:46.632Z,13.60
2018-12-29T19:16:16.434Z,12.40
2018-12-29T19:18:45.736Z,13.47
2018-12-29T19:21:15.773Z,14.13
2018-12-29T19:23:47.036Z,13.07
2018-12-29T19:26:16.689Z,14.07
2018-12-29T19:28:46.473Z,14.80
2018-12-29T19:31:16.133Z,14.90
2018-12-29T19:33:45.746Z,15.60
2018-12-29T19:36:15.376Z,14.83
2018-12-29T19:38:44.638Z,15.00
2018-12-29T19:41:14.456Z,16.30
2018-12-29T19:43:44.085Z,15.67
2018-12-29T19:46:13.636Z,14.40
2018-12-29T19:48:42.892Z,15.30
2018-12-29T19:51:12.120Z,16.13
2018-12-29T19:53:41.787Z,14.93
2018-12-29T19:56:11.961Z,15.50
2018-12-29T19:58:41.716Z,16.00
2018-12-29T20:01:11.025Z,16.03
2018-12-29T20:03:40.327Z,16.80
2018-12-29T20:06:11.226Z,16.77
2018-12-29T20:08:40.549Z,15.93
2018-12-29T20:11:09.729Z,16.83
2018-12-29T20:13:39.099Z,16.53
2018-12-29T20:16:08.469Z,16.60
2018-12-29T20:18:37.803Z,16.30
2018-12-29T20:21:07.516Z,16.23
2018-12-29T20:23:36.861Z,26.20
2018-12-29T20:26:06.080Z,19.43
2018-12-29T20:28:35.348Z,24.20
2018-12-29T20:31:04.670Z,19.23
2018-12-29T20:33:34.212Z,16.97
2018-12-29T20:36:03.753Z,18.43
2018-12-29T20:38:32.993Z,18.80
2018-12-29T20:41:02.235Z,18.53
2018-12-29T20:43:31.826Z,17.13
2018-12-29T20:46:01.071Z,16.83
2018-12-29T20:48:30.371Z,16.97
2018-12-29T20:50:59.675Z,17.97
2018-12-29T20:53:28.910Z,18.53
2018-12-29T20:55:58.188Z,19.93
2018-12-29T20:58:27.444Z,20.43
2018-12-29T21:00:57.215Z,19.93
2018-12-29T21:03:26.768Z,18.00
2018-12-29T21:05:56.071Z,18.50
2018-12-29T21:08:25.376Z,17.77
2018-12-29T21:10:54.890Z,19.23
2018-12-29T21:13:24.148Z,18.00
2018-12-29T21:15:53.410Z,18.10
2018-12-29T21:18:22.664Z,16.73
2018-12-29T21:20:52.545Z,17.27
2018-12-29T21:23:22.175Z,17.77
2018-12-29T21:25:51.476Z,15.93
2018-12-29T21:28:20.814Z,15.97
2018-12-29T21:30:50.444Z,15.77
2018-12-29T21:33:19.704Z,15.37
2018-12-29T21:35:49.048Z,15.77
2018-12-29T21:38:18.275Z,14.83
2018-12-29T21:40:47.634Z,15.37
2018-12-29T21:43:16.880Z,14.87
2018-12-29T21:45:46.167Z,14.50
2018-12-29T21:48:15.323Z,14.13
2018-12-29T21:50:44.565Z,15.50
2018-12-29T21:53:13.796Z,14.23
2018-12-29T21:55:43.368Z,15.97
2018-12-29T21:58:13.069Z,14.60
2018-12-29T22:00:42.663Z,15.80
2018-12-29T22:03:12.188Z,15.57
2018-12-29T22:05:41.404Z,14.17
2018-12-29T22:08:10.669Z,12.57
2018-12-29T22:10:39.914Z,12.90
2018-12-29T22:13:09.574Z,10.27
2018-12-29T22:15:39.373Z,10.83
2018-12-29T22:18:08.645Z,10.97
2018-12-29T22:20:37.976Z,10.07
2018-12-29T22:23:07.616Z,9.83
2018-12-29T22:25:37.183Z,9.70
2018-12-29T22:28:06.740Z,8.73
2018-12-29T22:30:36.364Z,9.87
2018-12-29T22:33:05.614Z,8.50
2018-12-29T22:35:35.226Z,9.03
2018-12-29T22:38:05.235Z,8.73
2018-12-29T22:40:34.714Z,8.13
2018-12-29T22:43:04.717Z,7.53
2018-12-29T22:45:34.358Z,8.03
2018-12-29T22:48:03.958Z,8.20
2018-12-29T22:50:40.844Z,8.00
2018-12-29T22:53:04.428Z,9.87
2018-12-29T22:55:33.717Z,7.43
2018-12-29T22:58:08.506Z,7.87
2018-12-29T23:00:39.574Z,7.70
2018-12-29T23:03:09.014Z,7.97
2018-12-29T23:05:38.551Z,7.37
2018-12-29T23:08:07.885Z,8.73
2018-12-29T23:10:37.534Z,7.77
2018-12-29T23:13:06.890Z,8.33
2018-12-29T23:15:36.133Z,7.67
2018-12-29T23:18:05.411Z,7.20
2018-12-29T23:20:35.054Z,7.77
2018-12-29T23:23:04.397Z,8.43
2018-12-29T23:25:33.718Z,8.57
2018-12-29T23:28:03.128Z,8.33
2018-12-29T23:30:32.689Z,7.97
2018-12-29T23:33:01.948Z,8.60
2018-12-29T23:35:31.168Z,8.13
2018-12-29T23:38:00.611Z,7.90
2018-12-29T23:40:29.943Z,7.87
2018-12-29T23:42:59.506Z,6.53
2018-12-29T23:45:29.137Z,7.10
2018-12-29T23:47:58.486Z,6.83
2018-12-29T23:50:27.730Z,7.27
2018-12-29T23:52:57.443Z,7.80
2018-12-29T23:55:27.923Z,8.13
2018-12-29T23:57:57.245Z,8.00
